Terminal Aerodrome Forecast
Issued by NWS

Home | Current Version | Previous Version | Graphics & Text | Print | Product List | Glossary On
Versions: 1 2 3 4 5 6 7 8 9 10 11 12 13 14 15 16 17 18 19
000
FTUS43 KIWX 130500
TAFSBN
TAF
KSBN 130531Z 1306/1406 33007KT 6SM -RA BKN015 OVC025
      TEMPO 1306/1308 4SM -RA BR BKN009
     FM131200 34011KT P6SM OVC015
     FM131500 33008KT P6SM BKN035
     FM140000 VRB03KT P6SM FEW035=

USA.gov is the U.S. government's official web portal to all federal, state and local government web resources and services.